Time;durP1;ratioP1;P1;durP2;ratioP2;P2;SDS_P1;SDS_P2;PMS_P1;PMS_P2;Temp;Humidity;BMP_temperature;BMP_pressure;BME280_temperature;BME280_humidity;BME280_pressure;Samples;Min_cycle;Max_cycle;Signal;HPM_P1;HPM_P2
2022/11/07 00:00:02;;;;;;;;;;;16.20;91.10;;;;;;5095772;28;19908;-10
2022/11/07 00:02:28;;;;;;;;;;;16.20;91.10;;;;;;5094091;28;19912;-9
2022/11/07 00:04:54;;;;;;;;;;;16.20;91.10;;;;;;5093673;28;19942;-9
2022/11/07 00:07:19;;;;;;;;;;;16.20;91.10;;;;;;5090431;28;19916;-8
2022/11/07 00:09:45;;;;;;;;;;;16.20;91.10;;;;;;5092459;28;19919;-8
2022/11/07 00:12:10;;;;;;;;;;;16.20;91.10;;;;;;5091047;28;19912;-10
2022/11/07 00:14:36;;;;;;;;;;;16.20;91.20;;;;;;5091115;28;19908;-10
2022/11/07 00:17:01;;;;;;;;;;;16.20;91.20;;;;;;5091395;28;19916;-11
2022/11/07 00:19:27;;;;;;;;;;;16.20;91.20;;;;;;5091878;28;19938;-9
2022/11/07 00:21:53;;;;;;;;;;;16.20;91.20;;;;;;5091410;28;20207;-10
2022/11/07 00:24:18;;;;;;;;;;;16.20;91.20;;;;;;5093245;28;20216;-8
2022/11/07 00:26:45;;;;;;;;;;;16.20;91.20;;;;;;5093713;28;19958;-9
2022/11/07 00:29:14;;;;;;;;;;;16.20;91.20;;;;;;5093989;28;19908;-10
2022/11/07 00:31:40;;;;;;;;;;;16.20;91.30;;;;;;5093603;28;19923;-10
2022/11/07 00:34:05;;;;;;;;;;;16.20;91.30;;;;;;5093953;28;19908;-10
2022/11/07 00:36:31;;;;;;;;;;;16.20;91.30;;;;;;5093468;28;19934;-9
2022/11/07 00:38:57;;;;;;;;;;;16.20;91.30;;;;;;5093614;28;19918;-8
2022/11/07 00:41:23;;;;;;;;;;;16.20;91.30;;;;;;5093827;28;20138;-9
2022/11/07 00:43:48;;;;;;;;;;;16.20;91.60;;;;;;5094308;28;19908;-8
2022/11/07 00:46:15;;;;;;;;;;;16.20;91.30;;;;;;5093623;28;20205;-9
2022/11/07 00:48:40;;;;;;;;;;;16.20;91.30;;;;;;5094855;28;19952;-10
2022/11/07 00:51:06;;;;;;;;;;;16.20;91.40;;;;;;5093374;28;19950;-10
2022/11/07 00:53:32;;;;;;;;;;;16.20;91.40;;;;;;5094079;28;19916;-9
2022/11/07 00:56:04;;;;;;;;;;;16.20;91.40;;;;;;5095078;28;20361;-10
2022/11/07 00:58:29;;;;;;;;;;;16.20;91.40;;;;;;5093825;28;20450;-9
2022/11/07 01:00:55;;;;;;;;;;;16.20;91.40;;;;;;5094736;28;20286;-8
2022/11/07 01:06:05;;;;;;;;;;;16.20;91.70;;;;;;5095613;28;19915;-9
2022/11/07 01:08:31;;;;;;;;;;;16.10;91.40;;;;;;5095727;28;19974;-9
2022/11/07 01:10:57;;;;;;;;;;;16.20;91.50;;;;;;5094568;28;19908;-9
2022/11/07 01:13:23;;;;;;;;;;;16.10;91.40;;;;;;5093481;28;19908;-10
2022/11/07 01:15:49;;;;;;;;;;;16.10;91.40;;;;;;5094439;28;19908;-10
2022/11/07 01:18:15;;;;;;;;;;;16.10;91.50;;;;;;5094705;28;19995;-9
2022/11/07 01:20:40;;;;;;;;;;;16.10;91.50;;;;;;5095914;28;20322;-9
2022/11/07 01:23:06;;;;;;;;;;;16.10;91.50;;;;;;5096317;28;19909;-7
2022/11/07 01:25:32;;;;;;;;;;;16.10;91.50;;;;;;5098145;28;19969;-10
2022/11/07 01:27:58;;;;;;;;;;;16.10;91.50;;;;;;5096857;28;20357;-10
2022/11/07 01:30:23;;;;;;;;;;;16.10;91.50;;;;;;5098361;28;19908;-9
2022/11/07 01:32:49;;;;;;;;;;;16.10;91.80;;;;;;5096358;28;19916;-10
2022/11/07 01:35:15;;;;;;;;;;;16.10;91.60;;;;;;5097905;28;19908;-8
2022/11/07 01:37:40;;;;;;;;;;;16.10;91.60;;;;;;5097301;28;19908;-8
2022/11/07 01:40:06;;;;;;;;;;;16.10;91.60;;;;;;5095772;28;19995;-8
2022/11/07 01:42:32;;;;;;;;;;;16.10;91.60;;;;;;5096601;28;19923;-8
2022/11/07 01:44:58;;;;;;;;;;;16.10;91.70;;;;;;5097947;28;19938;-10
2022/11/07 01:47:27;;;;;;;;;;;16.10;91.70;;;;;;5098277;28;20002;-8
2022/11/07 01:49:52;;;;;;;;;;;16.10;91.70;;;;;;5099235;28;19969;-8
2022/11/07 01:52:21;;;;;;;;;;;16.10;91.70;;;;;;5098339;28;19920;-10
2022/11/07 01:54:49;;;;;;;;;;;16.10;91.70;;;;;;5099452;28;19908;-10
2022/11/07 01:57:24;;;;;;;;;;;16.10;91.80;;;;;;5098211;28;19908;-9
2022/11/07 01:59:51;;;;;;;;;;;16.10;91.80;;;;;;5098319;28;19908;-8
2022/11/07 02:02:17;;;;;;;;;;;16.10;91.80;;;;;;5097390;28;19962;-10
2022/11/07 02:04:42;;;;;;;;;;;16.10;91.90;;;;;;5098736;28;19912;-8
2022/11/07 02:07:12;;;;;;;;;;;16.10;91.90;;;;;;5099368;28;19912;-9
2022/11/07 02:09:37;;;;;;;;;;;16.10;91.90;;;;;;5097492;28;19909;-10
2022/11/07 02:12:03;;;;;;;;;;;16.10;91.90;;;;;;5095659;28;19981;-7
2022/11/07 02:14:29;;;;;;;;;;;16.10;92.00;;;;;;5093492;28;19908;-8
2022/11/07 02:16:54;;;;;;;;;;;16.10;92.00;;;;;;5093998;28;19908;-9
2022/11/07 02:19:28;;;;;;;;;;;16.00;92.00;;;;;;5094349;28;20007;-10
2022/11/07 02:22:09;;;;;;;;;;;16.00;92.10;;;;;;5096044;28;19926;-10
2022/11/07 02:24:36;;;;;;;;;;;16.00;92.00;;;;;;5094459;28;19995;-8
2022/11/07 02:27:05;;;;;;;;;;;16.00;92.10;;;;;;5096366;28;20155;-10
2022/11/07 02:29:31;;;;;;;;;;;16.00;92.10;;;;;;5094214;28;20023;-9
2022/11/07 02:32:01;;;;;;;;;;;16.00;92.10;;;;;;5097112;28;19975;-8
2022/11/07 02:34:26;;;;;;;;;;;16.00;92.20;;;;;;5097200;28;19916;-9
2022/11/07 02:36:52;;;;;;;;;;;16.00;92.20;;;;;;5096064;28;20059;-10
2022/11/07 02:39:17;;;;;;;;;;;16.00;92.30;;;;;;5095435;28;20073;-9
2022/11/07 02:41:43;;;;;;;;;;;16.00;92.30;;;;;;5098057;28;20197;-8
2022/11/07 02:44:11;;;;;;;;;;;15.90;92.30;;;;;;5096082;28;20254;-8
2022/11/07 02:46:36;;;;;;;;;;;15.90;92.40;;;;;;5097274;28;19913;-9
2022/11/07 02:49:02;;;;;;;;;;;16.00;92.40;;;;;;5097598;28;19918;-8
2022/11/07 02:51:28;;;;;;;;;;;15.90;92.40;;;;;;5095555;28;19916;-9
2022/11/07 02:53:53;;;;;;;;;;;15.90;92.50;;;;;;5095126;28;19939;-9
2022/11/07 02:56:19;;;;;;;;;;;15.90;92.50;;;;;;5095455;28;19912;-10
2022/11/07 02:58:45;;;;;;;;;;;15.90;92.60;;;;;;5093764;28;19916;-9
2022/11/07 03:01:11;;;;;;;;;;;15.90;92.60;;;;;;5094689;28;19908;-9
2022/11/07 03:03:44;;;;;;;;;;;16.00;92.50;;;;;;5094384;28;20113;-9
2022/11/07 03:06:11;;;;;;;;;;;16.40;91.50;;;;;;5091393;28;19916;-9
2022/11/07 03:08:37;;;;;;;;;;;17.00;89.60;;;;;;5091712;28;20007;-9
2022/11/07 03:11:03;;;;;;;;;;;17.50;85.70;;;;;;5092034;28;19990;-8
2022/11/07 03:13:28;;;;;;;;;;;17.80;83.10;;;;;;5092648;28;20181;-8
2022/11/07 03:15:54;;;;;;;;;;;18.00;81.10;;;;;;5094272;28;20300;-10
2022/11/07 03:18:21;;;;;;;;;;;18.20;79.70;;;;;;5095208;28;19908;-11
2022/11/07 03:20:46;;;;;;;;;;;18.40;78.50;;;;;;5095739;28;20343;-11
2022/11/07 03:23:12;;;;;;;;;;;18.50;77.80;;;;;;5095846;28;19908;-8
2022/11/07 03:25:38;;;;;;;;;;;18.50;77.30;;;;;;5095909;28;19908;-12
2022/11/07 03:28:03;;;;;;;;;;;18.50;77.10;;;;;;5097263;28;19919;-9
2022/11/07 03:30:29;;;;;;;;;;;18.50;77.10;;;;;;5095527;28;19954;-10
2022/11/07 03:32:55;;;;;;;;;;;18.50;77.20;;;;;;5094560;28;19951;-9
2022/11/07 03:35:21;;;;;;;;;;;18.40;77.20;;;;;;5094455;28;20264;-8
2022/11/07 03:37:47;;;;;;;;;;;18.40;77.50;;;;;;5094795;28;20169;-10
2022/11/07 03:40:13;;;;;;;;;;;18.30;78.40;;;;;;5094560;28;19961;-9
2022/11/07 03:42:42;;;;;;;;;;;18.20;78.40;;;;;;5094031;28;19912;-8
2022/11/07 03:45:09;;;;;;;;;;;18.20;78.90;;;;;;5095229;28;20185;-10
2022/11/07 03:47:35;;;;;;;;;;;18.10;79.60;;;;;;5095289;28;20010;-9
2022/11/07 03:50:01;;;;;;;;;;;18.00;80.00;;;;;;5096506;28;19916;-9
2022/11/07 03:52:27;;;;;;;;;;;17.90;80.60;;;;;;5097285;28;19912;-9
2022/11/07 03:54:52;;;;;;;;;;;17.80;81.20;;;;;;5095813;28;19919;-10
2022/11/07 03:57:18;;;;;;;;;;;17.80;81.90;;;;;;5097226;28;20025;-10
2022/11/07 03:59:43;;;;;;;;;;;17.70;82.60;;;;;;5094960;28;19973;-10
2022/11/07 04:02:09;;;;;;;;;;;17.60;83.20;;;;;;5095544;28;20022;-9
2022/11/07 04:04:34;;;;;;;;;;;17.50;83.70;;;;;;5097115;28;19952;-11
2022/11/07 04:07:00;;;;;;;;;;;17.50;84.30;;;;;;5096669;28;20165;-9
2022/11/07 04:09:26;;;;;;;;;;;17.40;84.90;;;;;;5094400;28;20177;-11
2022/11/07 04:17:20;;;;;;;;;;;17.20;86.60;;;;;;5094938;28;20020;-9
2022/11/07 04:19:46;;;;;;;;;;;17.10;87.20;;;;;;5093702;28;19944;-9
2022/11/07 04:22:12;;;;;;;;;;;17.00;87.70;;;;;;5092786;28;19916;-10
2022/11/07 04:24:37;;;;;;;;;;;17.00;88.30;;;;;;5092967;28;20217;-9
2022/11/07 04:29:47;;;;;;;;;;;16.80;89.10;;;;;;5093423;28;19923;-11
2022/11/07 04:32:13;;;;;;;;;;;16.80;89.70;;;;;;5093745;28;19912;-11
2022/11/07 04:34:38;;;;;;;;;;;16.70;90.00;;;;;;5092467;28;19939;-10
2022/11/07 04:37:04;;;;;;;;;;;16.70;90.10;;;;;;5091363;28;20226;-9
2022/11/07 04:39:29;;;;;;;;;;;16.70;90.30;;;;;;5093631;28;19931;-8
2022/11/07 04:41:55;;;;;;;;;;;16.60;90.40;;;;;;5093130;28;19908;-9
2022/11/07 04:44:21;;;;;;;;;;;16.60;90.50;;;;;;5093013;28;19908;-9
2022/11/07 04:46:46;;;;;;;;;;;16.60;90.60;;;;;;5094627;28;19922;-9
2022/11/07 04:49:14;;;;;;;;;;;16.60;90.60;;;;;;5094884;28;19915;-9
2022/11/07 04:51:43;;;;;;;;;;;16.60;90.60;;;;;;5094446;28;20189;-9
2022/11/07 04:54:12;;;;;;;;;;;16.60;90.90;;;;;;5092236;28;19912;-9
2022/11/07 04:56:38;;;;;;;;;;;16.70;90.50;;;;;;5093975;28;19919;-8
2022/11/07 04:59:03;;;;;;;;;;;16.70;90.40;;;;;;5093219;28;19908;-10
2022/11/07 05:01:29;;;;;;;;;;;16.70;90.30;;;;;;5094519;28;20027;-10
2022/11/07 05:03:55;;;;;;;;;;;16.80;90.20;;;;;;5094954;28;19912;-10
2022/11/07 05:06:20;;;;;;;;;;;16.80;90.00;;;;;;5093534;28;20238;-10
2022/11/07 05:08:46;;;;;;;;;;;16.90;89.80;;;;;;5093089;28;19919;-9
2022/11/07 05:11:12;;;;;;;;;;;17.00;89.30;;;;;;5092652;28;20007;-9
2022/11/07 05:13:38;;;;;;;;;;;17.00;88.60;;;;;;5093144;28;19916;-10
2022/11/07 05:16:03;;;;;;;;;;;17.10;88.20;;;;;;5091670;28;19919;-10
2022/11/07 05:18:29;;;;;;;;;;;17.10;87.90;;;;;;5090216;28;19908;-9
2022/11/07 05:20:55;;;;;;;;;;;17.10;87.70;;;;;;5090373;28;19948;-7
2022/11/07 05:23:21;;;;;;;;;;;17.20;87.50;;;;;;5091560;28;19908;-10
2022/11/07 05:25:55;;;;;;;;;;;17.20;87.40;;;;;;5090813;28;20189;-12
2022/11/07 05:28:22;;;;;;;;;;;17.20;87.30;;;;;;5084543;28;19908;-9
2022/11/07 05:30:48;;;;;;;;;;;17.20;87.20;;;;;;5087893;28;19908;-10
2022/11/07 05:33:14;;;;;;;;;;;17.10;87.30;;;;;;5089835;28;20328;-11
2022/11/07 05:35:40;;;;;;;;;;;17.10;87.50;;;;;;5090350;28;19919;-10
2022/11/07 05:38:06;;;;;;;;;;;17.10;87.80;;;;;;5088784;28;19908;-10
2022/11/07 05:40:33;;;;;;;;;;;17.10;88.10;;;;;;5088607;28;19944;-8
2022/11/07 05:42:59;;;;;;;;;;;17.00;88.20;;;;;;5089581;28;19908;-9
2022/11/07 05:45:27;;;;;;;;;;;17.00;88.50;;;;;;5088724;28;19920;-9
2022/11/07 05:47:57;;;;;;;;;;;17.00;88.60;;;;;;5088575;28;19908;-11
2022/11/07 05:50:22;;;;;;;;;;;17.00;88.90;;;;;;5087851;28;19912;-10
2022/11/07 05:52:48;;;;;;;;;;;16.90;89.00;;;;;;5088674;28;20049;-10
2022/11/07 05:55:14;;;;;;;;;;;16.90;89.30;;;;;;5089225;28;19926;-10
2022/11/07 05:57:39;;;;;;;;;;;16.90;89.60;;;;;;5090596;28;19919;-9
2022/11/07 06:00:05;;;;;;;;;;;16.80;90.00;;;;;;5089475;28;19908;-9
2022/11/07 06:02:31;;;;;;;;;;;16.80;90.10;;;;;;5089724;28;19908;-12
2022/11/07 06:04:56;;;;;;;;;;;16.70;90.30;;;;;;5089550;28;19908;-9
2022/11/07 06:07:22;;;;;;;;;;;16.70;90.40;;;;;;5091202;28;20274;-10
2022/11/07 06:09:47;;;;;;;;;;;16.70;90.50;;;;;;5089904;28;19912;-8
2022/11/07 06:12:13;;;;;;;;;;;16.70;90.70;;;;;;5088321;28;19986;-9
2022/11/07 06:14:39;;;;;;;;;;;16.70;90.80;;;;;;5089282;28;19919;-9
2022/11/07 06:17:06;;;;;;;;;;;16.60;90.80;;;;;;5088985;28;19956;-10
2022/11/07 06:19:31;;;;;;;;;;;16.60;90.90;;;;;;5091056;28;19908;-9
2022/11/07 06:21:58;;;;;;;;;;;16.60;91.00;;;;;;5088710;28;19908;-10
2022/11/07 06:24:24;;;;;;;;;;;16.60;91.10;;;;;;5089667;28;20176;-10
2022/11/07 06:26:50;;;;;;;;;;;16.60;91.10;;;;;;5088584;28;19955;-9
2022/11/07 06:29:15;;;;;;;;;;;16.50;91.20;;;;;;5090357;28;20182;-12
2022/11/07 06:31:41;;;;;;;;;;;16.50;91.30;;;;;;5089140;28;20022;-9
2022/11/07 06:34:06;;;;;;;;;;;16.60;91.40;;;;;;5086455;28;20014;-10
2022/11/07 06:36:32;;;;;;;;;;;16.50;91.50;;;;;;5083002;28;20050;-9
2022/11/07 06:38:57;;;;;;;;;;;16.50;91.50;;;;;;5085557;28;20032;-10
2022/11/07 06:41:23;;;;;;;;;;;16.50;91.60;;;;;;5086177;28;20206;-8
2022/11/07 06:43:51;;;;;;;;;;;16.50;91.50;;;;;;5087369;28;19912;-9
2022/11/07 06:46:18;;;;;;;;;;;16.50;91.50;;;;;;5085556;28;20075;-9
2022/11/07 06:48:44;;;;;;;;;;;16.60;91.50;;;;;;5085540;28;19908;-9
2022/11/07 06:51:10;;;;;;;;;;;16.60;91.50;;;;;;5088700;28;19916;-10
2022/11/07 06:53:36;;;;;;;;;;;16.60;91.50;;;;;;5087314;28;20266;-9
2022/11/07 06:56:03;;;;;;;;;;;16.60;91.50;;;;;;5070710;28;19908;-9
2022/11/07 06:58:28;;;;;;;;;;;16.60;91.50;;;;;;5087517;28;19912;-9
2022/11/07 07:00:58;;;;;;;;;;;16.60;91.40;;;;;;5087025;28;19909;-9
2022/11/07 07:03:24;;;;;;;;;;;16.60;91.40;;;;;;5087209;28;20374;-9
2022/11/07 07:05:49;;;;;;;;;;;16.60;91.30;;;;;;5088288;28;19909;-11
2022/11/07 07:08:15;;;;;;;;;;;16.70;91.40;;;;;;5089265;28;19908;-9
2022/11/07 07:10:44;;;;;;;;;;;16.70;91.20;;;;;;5089007;28;19908;-9
2022/11/07 07:13:11;;;;;;;;;;;16.70;91.20;;;;;;5086796;28;20018;-10
2022/11/07 07:15:37;;;;;;;;;;;16.70;91.30;;;;;;5086936;28;19908;-9
2022/11/07 07:18:03;;;;;;;;;;;16.70;91.30;;;;;;5086137;28;19957;-10
2022/11/07 07:20:29;;;;;;;;;;;16.70;91.30;;;;;;5085006;28;20067;-8
2022/11/07 07:22:54;;;;;;;;;;;16.70;91.30;;;;;;5084432;28;19916;-8
2022/11/07 07:25:20;;;;;;;;;;;16.70;91.30;;;;;;5086160;28;19908;-10
2022/11/07 07:27:46;;;;;;;;;;;16.70;91.20;;;;;;5085831;28;20002;-9
2022/11/07 07:30:12;;;;;;;;;;;16.80;91.20;;;;;;5086367;28;20007;-9
2022/11/07 07:32:37;;;;;;;;;;;16.70;91.10;;;;;;5084979;28;20006;-11
2022/11/07 07:35:04;;;;;;;;;;;16.70;91.10;;;;;;5086871;28;20122;-10
2022/11/07 07:37:29;;;;;;;;;;;16.70;91.20;;;;;;5087527;28;19924;-10
2022/11/07 07:39:55;;;;;;;;;;;16.80;91.20;;;;;;5087390;28;19908;-9
2022/11/07 07:42:20;;;;;;;;;;;16.80;91.20;;;;;;5087112;28;20273;-9
2022/11/07 07:44:46;;;;;;;;;;;16.80;91.20;;;;;;5087538;28;19924;-10
2022/11/07 07:47:11;;;;;;;;;;;16.80;91.20;;;;;;5088978;28;20540;-9
2022/11/07 07:49:37;;;;;;;;;;;16.80;91.20;;;;;;5088580;28;19908;-9
2022/11/07 07:52:03;;;;;;;;;;;16.80;91.30;;;;;;5089187;28;20178;-11
2022/11/07 07:54:28;;;;;;;;;;;16.70;91.20;;;;;;5087877;28;19969;-10
2022/11/07 07:56:54;;;;;;;;;;;16.70;91.30;;;;;;5088737;28;19915;-9
2022/11/07 07:59:19;;;;;;;;;;;16.80;91.30;;;;;;5088050;28;19908;-10
2022/11/07 08:01:45;;;;;;;;;;;16.80;91.30;;;;;;5086919;28;20240;-10
2022/11/07 08:04:11;;;;;;;;;;;16.80;91.30;;;;;;5088757;28;19916;-8
2022/11/07 08:06:36;;;;;;;;;;;16.80;91.30;;;;;;5088386;28;19908;-10
2022/11/07 08:09:02;;;;;;;;;;;16.80;91.40;;;;;;5088578;28;19908;-8
2022/11/07 08:11:28;;;;;;;;;;;16.80;91.40;;;;;;5089239;28;20210;-9
2022/11/07 08:13:54;;;;;;;;;;;16.80;91.40;;;;;;5090068;28;20294;-9
2022/11/07 08:16:19;;;;;;;;;;;16.80;91.50;;;;;;5088839;28;19942;-8
2022/11/07 08:18:45;;;;;;;;;;;16.80;91.60;;;;;;5086043;28;19972;-11
2022/11/07 08:21:11;;;;;;;;;;;16.80;91.60;;;;;;5087563;28;20170;-10
2022/11/07 08:23:36;;;;;;;;;;;16.90;91.50;;;;;;5085948;28;19916;-10
2022/11/07 08:26:03;;;;;;;;;;;16.90;91.50;;;;;;5087714;28;19915;-9
2022/11/07 08:28:30;;;;;;;;;;;16.90;91.50;;;;;;5086032;28;19915;-9
2022/11/07 08:31:06;;;;;;;;;;;16.90;91.50;;;;;;5086899;28;19908;-10
2022/11/07 08:33:32;;;;;;;;;;;16.90;91.50;;;;;;5086102;28;19923;-10
2022/11/07 08:35:59;;;;;;;;;;;16.90;91.60;;;;;;5087637;28;19908;-10
2022/11/07 08:38:25;;;;;;;;;;;16.80;91.70;;;;;;5087654;28;20175;-8
2022/11/07 08:40:51;;;;;;;;;;;16.80;91.90;;;;;;5085114;28;19909;-11
2022/11/07 08:43:17;;;;;;;;;;;16.70;92.00;;;;;;5085460;28;20061;-10
2022/11/07 08:45:43;;;;;;;;;;;16.70;92.10;;;;;;5086866;28;19929;-10
2022/11/07 08:48:09;;;;;;;;;;;16.70;92.30;;;;;;5085055;28;20282;-10
2022/11/07 08:50:35;;;;;;;;;;;16.70;92.40;;;;;;5089056;28;20010;-9
2022/11/07 08:53:00;;;;;;;;;;;16.60;92.40;;;;;;5086471;28;19976;-11
2022/11/07 08:55:26;;;;;;;;;;;16.60;92.50;;;;;;5084873;28;20058;-9
2022/11/07 08:57:56;;;;;;;;;;;16.60;92.50;;;;;;5084995;28;19925;-8
2022/11/07 09:00:21;;;;;;;;;;;16.70;92.40;;;;;;5083880;28;19908;-9
2022/11/07 09:02:47;;;;;;;;;;;16.70;92.40;;;;;;5086558;28;19943;-9
2022/11/07 09:05:13;;;;;;;;;;;16.80;92.30;;;;;;5086696;28;19908;-9
2022/11/07 09:07:39;;;;;;;;;;;16.80;92.20;;;;;;5085565;28;19908;-8
2022/11/07 09:10:05;;;;;;;;;;;16.90;92.10;;;;;;5086420;28;20003;-10
2022/11/07 09:12:30;;;;;;;;;;;16.90;92.00;;;;;;5086087;28;19966;-9
2022/11/07 09:14:56;;;;;;;;;;;16.90;91.90;;;;;;5086577;28;20347;-9
2022/11/07 09:17:21;;;;;;;;;;;17.00;91.90;;;;;;5086561;28;19908;-10
2022/11/07 09:19:47;;;;;;;;;;;17.00;91.80;;;;;;5087387;28;20231;-9
2022/11/07 09:22:13;;;;;;;;;;;17.10;91.80;;;;;;5087870;28;20159;-10
2022/11/07 09:24:38;;;;;;;;;;;17.10;91.70;;;;;;5089250;28;20159;-9
2022/11/07 09:27:04;;;;;;;;;;;17.10;91.60;;;;;;5087590;28;20289;-8
2022/11/07 09:29:29;;;;;;;;;;;17.20;91.50;;;;;;5086801;28;20271;-10
2022/11/07 09:31:55;;;;;;;;;;;17.30;91.20;;;;;;5087044;28;20084;-10
2022/11/07 09:34:20;;;;;;;;;;;17.60;90.50;;;;;;5085808;28;19920;-9
2022/11/07 09:36:46;;;;;;;;;;;17.80;90.00;;;;;;5084657;28;19908;-9
2022/11/07 09:39:12;;;;;;;;;;;17.80;89.20;;;;;;5085711;28;20225;-9
2022/11/07 09:42:03;;;;;;;;;;;17.90;88.80;;;;;;5090885;28;20062;-11
2022/11/07 09:44:52;;;;;;;;;;;18.00;88.20;;;;;;5085974;28;19913;-11
2022/11/07 09:47:21;;;;;;;;;;;17.90;87.80;;;;;;5090584;28;19955;-9
2022/11/07 09:49:51;;;;;;;;;;;17.80;88.50;;;;;;5089125;28;19908;-9
2022/11/07 09:52:17;;;;;;;;;;;17.70;89.10;;;;;;5089053;28;19912;-10
2022/11/07 09:54:45;;;;;;;;;;;17.70;89.60;;;;;;5090900;28;20158;-9
2022/11/07 09:57:13;;;;;;;;;;;17.60;90.00;;;;;;5093863;28;20174;-11
2022/11/07 09:59:45;;;;;;;;;;;17.60;90.10;;;;;;5092405;28;19954;-9
2022/11/07 10:02:15;;;;;;;;;;;17.50;90.40;;;;;;5090156;28;20256;-10
2022/11/07 10:04:41;;;;;;;;;;;17.40;90.50;;;;;;5092111;28;19979;-9
2022/11/07 10:07:25;;;;;;;;;;;17.40;90.70;;;;;;5092949;28;20007;-9
2022/11/07 10:09:59;;;;;;;;;;;17.40;90.90;;;;;;5091444;28;19908;-9
2022/11/07 10:12:25;;;;;;;;;;;17.30;91.00;;;;;;5090900;28;19913;-10
2022/11/07 10:15:20;;;;;;;;;;;17.30;91.00;;;;;;5088536;28;19908;-10
2022/11/07 10:17:51;;;;;;;;;;;17.30;91.10;;;;;;5032996;28;20014;-12
2022/11/07 10:20:35;;;;;;;;;;;17.30;91.20;;;;;;5087126;28;19919;-8
2022/11/07 10:23:14;;;;;;;;;;;17.30;91.30;;;;;;5087291;28;20293;-10
2022/11/07 10:25:44;;;;;;;;;;;17.20;91.40;;;;;;5085440;28;19909;-9
2022/11/07 10:28:10;;;;;;;;;;;17.20;91.60;;;;;;5086660;28;20022;-9
2022/11/07 10:30:35;;;;;;;;;;;17.20;91.70;;;;;;5085572;28;19908;-10
2022/11/07 10:33:04;;;;;;;;;;;17.10;91.80;;;;;;5087913;28;19924;-9
2022/11/07 10:35:30;;;;;;;;;;;17.10;91.80;;;;;;5089447;28;20316;-10
2022/11/07 10:37:57;;;;;;;;;;;17.10;91.90;;;;;;5088159;28;20002;-10
2022/11/07 10:40:27;;;;;;;;;;;17.10;92.00;;;;;;5087898;28;20289;-10
2022/11/07 10:42:54;;;;;;;;;;;17.10;92.10;;;;;;5088116;28;19958;-10
2022/11/07 10:45:20;;;;;;;;;;;17.10;92.20;;;;;;5088630;28;19939;-8
2022/11/07 10:47:56;;;;;;;;;;;17.10;92.20;;;;;;5087907;28;19937;-8
2022/11/07 10:50:22;;;;;;;;;;;17.10;92.30;;;;;;5086262;28;19908;-11
2022/11/07 10:52:52;;;;;;;;;;;17.10;92.40;;;;;;5087517;28;19943;-12
2022/11/07 10:55:17;;;;;;;;;;;17.00;92.40;;;;;;5089478;28;19932;-12
2022/11/07 10:57:45;;;;;;;;;;;17.00;92.50;;;;;;5090037;28;19934;-10
2022/11/07 11:00:21;;;;;;;;;;;17.00;92.60;;;;;;5089288;28;19919;-9
2022/11/07 11:02:47;;;;;;;;;;;17.00;92.60;;;;;;5090585;28;19920;-10
2022/11/07 11:05:21;;;;;;;;;;;17.10;92.50;;;;;;5089240;28;19915;-9
2022/11/07 11:07:47;;;;;;;;;;;17.10;92.40;;;;;;5090817;28;19965;-11
2022/11/07 11:10:35;;;;;;;;;;;17.20;92.40;;;;;;5091250;28;20327;-10
2022/11/07 11:13:02;;;;;;;;;;;17.10;92.40;;;;;;5087606;28;19912;-10
2022/11/07 11:15:29;;;;;;;;;;;17.10;92.50;;;;;;5090648;28;20286;-8
2022/11/07 11:18:03;;;;;;;;;;;17.10;92.50;;;;;;5088990;28;19908;-10
2022/11/07 11:20:31;;;;;;;;;;;17.10;92.50;;;;;;5087152;28;19914;-11
2022/11/07 11:22:58;;;;;;;;;;;17.10;92.60;;;;;;5087692;28;20220;-9
2022/11/07 11:25:24;;;;;;;;;;;17.10;92.50;;;;;;5089536;28;20159;-10
2022/11/07 11:28:02;;;;;;;;;;;17.20;92.50;;;;;;5087497;28;20443;-8
2022/11/07 11:30:29;;;;;;;;;;;17.20;92.60;;;;;;5089160;28;19998;-9
2022/11/07 11:33:13;;;;;;;;;;;17.20;92.50;;;;;;5088699;28;19939;-8
2022/11/07 11:35:43;;;;;;;;;;;17.20;92.60;;;;;;5090780;28;20346;-11
2022/11/07 11:38:28;;;;;;;;;;;17.10;92.70;;;;;;5090221;28;20238;-9
2022/11/07 11:40:58;;;;;;;;;;;17.10;92.70;;;;;;5088625;28;20201;-9
2022/11/07 11:43:26;;;;;;;;;;;17.20;92.70;;;;;;5089678;28;20250;-9
2022/11/07 11:46:02;;;;;;;;;;;17.20;92.60;;;;;;5088795;28;19916;-11
2022/11/07 11:48:34;;;;;;;;;;;17.20;92.60;;;;;;5087841;28;19908;-10
2022/11/07 11:51:06;;;;;;;;;;;17.20;92.60;;;;;;5086768;28;19987;-8
2022/11/07 11:53:32;;;;;;;;;;;17.30;92.70;;;;;;5085780;28;20018;-8
2022/11/07 11:56:06;;;;;;;;;;;17.30;92.70;;;;;;5087314;28;20222;-11
2022/11/07 11:58:50;;;;;;;;;;;17.20;92.60;;;;;;5085172;28;20034;-10
2022/11/07 12:01:28;;;;;;;;;;;17.30;92.60;;;;;;5086021;28;20062;-10
2022/11/07 12:04:00;;;;;;;;;;;17.30;92.60;;;;;;5083474;28;20356;-9
2022/11/07 12:06:45;;;;;;;;;;;17.30;92.70;;;;;;5081949;28;20211;-10
2022/11/07 12:09:11;;;;;;;;;;;17.30;92.70;;;;;;5085344;28;19908;-11
2022/11/07 12:11:37;;;;;;;;;;;17.30;92.80;;;;;;5084535;28;19908;-11
2022/11/07 12:14:10;;;;;;;;;;;17.20;92.80;;;;;;5083187;28;19908;-10
2022/11/07 12:16:39;;;;;;;;;;;17.20;93.00;;;;;;5083538;28;20052;-9
2022/11/07 12:19:16;;;;;;;;;;;17.20;93.00;;;;;;5083785;28;19951;-10
2022/11/07 12:21:53;;;;;;;;;;;17.20;93.30;;;;;;5084267;28;19980;-11
2022/11/07 12:24:29;;;;;;;;;;;17.20;93.40;;;;;;5083960;28;19912;-9
2022/11/07 12:27:15;;;;;;;;;;;17.20;93.50;;;;;;5081699;28;20053;-9
2022/11/07 12:30:10;;;;;;;;;;;17.10;93.60;;;;;;5083469;28;19922;-10
2022/11/07 12:32:54;;;;;;;;;;;17.10;93.70;;;;;;5044900;28;19923;-9
2022/11/07 12:35:26;;;;;;;;;;;17.10;93.80;;;;;;5081292;28;19907;-9
2022/11/07 12:38:01;;;;;;;;;;;17.20;93.90;;;;;;5084822;28;20002;-9
2022/11/07 12:40:29;;;;;;;;;;;17.20;93.80;;;;;;5083792;28;19919;-10
2022/11/07 12:43:10;;;;;;;;;;;17.30;93.80;;;;;;5082825;28;20031;-10
2022/11/07 12:45:39;;;;;;;;;;;17.30;93.70;;;;;;5082893;28;19923;-10
2022/11/07 12:48:11;;;;;;;;;;;17.40;93.60;;;;;;5095648;28;19912;-9
2022/11/07 12:50:56;;;;;;;;;;;17.40;93.50;;;;;;5101877;28;19908;-11
2022/11/07 12:53:31;;;;;;;;;;;17.40;93.40;;;;;;5086210;28;20314;-10
2022/11/07 12:56:07;;;;;;;;;;;17.40;93.30;;;;;;5084909;28;19908;-11
2022/11/07 12:58:34;;;;;;;;;;;17.50;93.40;;;;;;5086346;28;19951;-10
2022/11/07 13:01:00;;;;;;;;;;;17.50;93.40;;;;;;5087473;28;19909;-10
2022/11/07 13:03:26;;;;;;;;;;;17.50;93.50;;;;;;5086751;28;20395;-9
2022/11/07 13:05:57;;;;;;;;;;;17.50;93.60;;;;;;5114274;28;19994;-9
2022/11/07 13:08:41;;;;;;;;;;;17.50;93.70;;;;;;5115159;28;19919;-9
2022/11/07 13:11:07;;;;;;;;;;;17.50;93.60;;;;;;5096940;28;20019;-9
2022/11/07 13:13:33;;;;;;;;;;;17.60;93.70;;;;;;5086355;28;19992;-10
2022/11/07 13:16:05;;;;;;;;;;;17.60;93.60;;;;;;5098604;28;19916;-9
2022/11/07 13:18:31;;;;;;;;;;;17.60;93.70;;;;;;5112080;28;19911;-10
2022/11/07 13:21:04;;;;;;;;;;;17.60;93.80;;;;;;5102813;28;19912;-11
2022/11/07 13:23:30;;;;;;;;;;;17.60;93.80;;;;;;5091830;28;19908;-9
2022/11/07 13:26:00;;;;;;;;;;;17.60;93.90;;;;;;5087276;28;19908;-10
2022/11/07 13:28:39;;;;;;;;;;;17.50;93.90;;;;;;5121636;27;20192;-9
2022/11/07 13:31:25;;;;;;;;;;;17.50;94.00;;;;;;5090245;28;20015;-10
2022/11/07 13:33:51;;;;;;;;;;;17.50;94.10;;;;;;5090487;28;20277;-8
2022/11/07 13:36:24;;;;;;;;;;;17.40;94.20;;;;;;5089049;28;19942;-9
2022/11/07 13:38:51;;;;;;;;;;;17.40;94.20;;;;;;5089516;28;19908;-9
2022/11/07 13:41:18;;;;;;;;;;;17.40;94.30;;;;;;5091546;28;20007;-9
2022/11/07 13:44:01;;;;;;;;;;;17.40;94.30;;;;;;5091968;28;19919;-9
2022/11/07 13:46:30;;;;;;;;;;;17.40;94.40;;;;;;5089162;28;19930;-9
2022/11/07 13:49:00;;;;;;;;;;;17.40;94.40;;;;;;5090632;28;19948;-9
2022/11/07 13:51:34;;;;;;;;;;;17.40;94.50;;;;;;5090343;28;19908;-10
2022/11/07 13:54:26;;;;;;;;;;;17.40;94.50;;;;;;5090141;28;19973;-8
2022/11/07 13:57:10;;;;;;;;;;;17.30;94.60;;;;;;5097402;28;19909;-8
2022/11/07 13:59:53;;;;;;;;;;;17.30;94.70;;;;;;5115970;28;19915;-9
2022/11/07 14:02:20;;;;;;;;;;;17.30;94.90;;;;;;5097596;28;20331;-9
2022/11/07 14:04:50;;;;;;;;;;;17.30;94.90;;;;;;5089063;28;19908;-10
2022/11/07 14:07:16;;;;;;;;;;;17.30;95.10;;;;;;5118719;28;19912;-10
2022/11/07 14:10:11;;;;;;;;;;;17.20;95.10;;;;;;5119547;28;20361;-9
2022/11/07 14:12:37;;;;;;;;;;;17.20;95.20;;;;;;5093384;28;19919;-9
2022/11/07 14:15:03;;;;;;;;;;;17.20;95.30;;;;;;5108832;28;19923;-10
2022/11/07 14:17:33;;;;;;;;;;;17.20;95.40;;;;;;5107820;28;20178;-10
2022/11/07 14:20:25;;;;;;;;;;;17.20;95.50;;;;;;5110453;28;19947;-8
2022/11/07 14:22:52;;;;;;;;;;;17.10;95.60;;;;;;5114499;28;19920;-9
2022/11/07 14:25:26;;;;;;;;;;;17.10;95.80;;;;;;5116329;28;19993;-9
2022/11/07 14:27:51;;;;;;;;;;;17.20;96.10;;;;;;5105272;28;19912;-9
2022/11/07 14:30:18;;;;;;;;;;;17.10;96.20;;;;;;5098177;28;19915;-10
2022/11/07 14:32:48;;;;;;;;;;;17.10;96.20;;;;;;5097660;28;19912;-9
2022/11/07 14:35:25;;;;;;;;;;;17.10;96.20;;;;;;5098080;28;19918;-9
2022/11/07 14:37:51;;;;;;;;;;;17.10;96.20;;;;;;5098356;28;19912;-9
2022/11/07 14:40:17;;;;;;;;;;;17.10;96.30;;;;;;5098914;28;19919;-8